createdAt,value
2023-02-24T00:00:31.982Z,93.97
2023-02-24T00:03:05.754Z,88.63
2023-02-24T00:05:39.149Z,104.10
2023-02-24T00:08:07.224Z,93.70
2023-02-24T00:10:37.437Z,96.23
2023-02-24T00:13:05.433Z,105.57
2023-02-24T00:15:35.232Z,105.97
2023-02-24T00:18:06.975Z,100.03
2023-02-24T00:20:35.579Z,90.90
2023-02-24T00:23:03.702Z,95.77
2023-02-24T00:25:31.633Z,98.30
2023-02-24T00:28:02.219Z,117.47
2023-02-24T00:30:32.778Z,101.13
2023-02-24T00:33:03.367Z,95.70
2023-02-24T00:35:31.415Z,100.90
2023-02-24T00:37:59.484Z,112.20
2023-02-24T00:40:30.182Z,125.13
2023-02-24T00:42:58.397Z,100.27
2023-02-24T00:45:30.362Z,106.70
2023-02-24T00:47:58.367Z,121.77
2023-02-24T00:50:27.697Z,123.03
2023-02-24T00:52:55.643Z,103.87
2023-02-24T00:55:23.771Z,95.97
2023-02-24T00:57:51.762Z,99.97
2023-02-24T01:00:21.308Z,95.00
2023-02-24T01:02:49.368Z,89.50
2023-02-24T01:05:17.360Z,86.40
2023-02-24T01:07:46.598Z,86.53
2023-02-24T01:10:14.522Z,97.00
2023-02-24T01:12:50.325Z,100.43
2023-02-24T01:15:20.611Z,90.83
2023-02-24T01:17:49.024Z,114.70
2023-02-24T01:20:18.863Z,92.43
2023-02-24T01:22:50.546Z,95.80
2023-02-24T01:25:20.209Z,97.13
2023-02-24T01:27:48.165Z,89.00
2023-02-24T01:30:18.073Z,82.47
2023-02-24T01:32:47.216Z,96.87
2023-02-24T01:35:17.612Z,87.57
2023-02-24T01:37:46.251Z,88.67
2023-02-24T01:40:21.676Z,91.93
2023-02-24T01:42:50.627Z,101.67
2023-02-24T01:45:24.999Z,101.37
2023-02-24T01:47:53.968Z,102.23
2023-02-24T01:50:25.922Z,94.53
2023-02-24T01:52:56.496Z,89.10
2023-02-24T01:55:32.231Z,98.60
2023-02-24T01:58:02.476Z,101.70
2023-02-24T02:00:37.582Z,116.30
2023-02-24T02:03:11.880Z,116.90
2023-02-24T02:05:41.625Z,119.87
2023-02-24T02:08:11.255Z,110.47
2023-02-24T02:10:44.294Z,90.33
2023-02-24T02:13:14.147Z,127.13
2023-02-24T02:15:52.078Z,116.00
2023-02-24T02:18:33.223Z,91.63
2023-02-24T02:21:38.049Z,104.23
2023-02-24T02:24:28.269Z,107.30
2023-02-24T02:27:29.375Z,128.27
2023-02-24T02:30:36.127Z,112.30
2023-02-24T02:33:41.805Z,104.03
2023-02-24T02:36:19.144Z,106.13
2023-02-24T02:38:55.137Z,103.87
2023-02-24T02:41:29.457Z,102.00
2023-02-24T02:44:04.152Z,106.77
2023-02-24T02:46:37.773Z,110.13
2023-02-24T02:49:14.178Z,107.10
2023-02-24T02:51:51.535Z,104.60
2023-02-24T02:54:29.605Z,105.33
2023-02-24T02:57:03.279Z,104.43
2023-02-24T02:59:33.456Z,93.57
2023-02-24T03:02:11.601Z,94.30
2023-02-24T03:04:43.300Z,105.97
2023-02-24T03:07:17.674Z,95.13
2023-02-24T03:09:51.541Z,135.97
2023-02-24T03:12:22.457Z,90.60
2023-02-24T03:14:56.689Z,99.43
2023-02-24T03:17:27.205Z,93.87
2023-02-24T03:20:01.668Z,88.53
2023-02-24T03:22:37.859Z,92.67
2023-02-24T03:25:06.885Z,92.53
2023-02-24T03:27:44.428Z,97.37
2023-02-24T03:30:16.956Z,90.20
2023-02-24T03:32:55.810Z,91.27
2023-02-24T03:35:27.261Z,84.10
2023-02-24T03:37:59.368Z,97.37
2023-02-24T03:40:29.830Z,80.27
2023-02-24T03:43:05.334Z,92.67
2023-02-24T03:45:37.908Z,75.17
2023-02-24T03:48:07.849Z,80.73
2023-02-24T03:50:37.962Z,105.73
2023-02-24T03:53:17.690Z,95.13
2023-02-24T03:55:59.013Z,97.63
2023-02-24T03:58:36.895Z,90.50
2023-02-24T04:01:13.043Z,79.20
2023-02-24T04:03:49.735Z,80.07
2023-02-24T04:06:23.414Z,95.13
2023-02-24T04:09:01.530Z,109.53
2023-02-24T04:11:37.380Z,79.70
2023-02-24T04:14:08.789Z,99.60
2023-02-24T04:16:43.077Z,95.80
2023-02-24T04:19:15.196Z,87.67
2023-02-24T04:21:45.277Z,88.53
2023-02-24T04:24:17.895Z,87.23
2023-02-24T04:26:47.365Z,80.23
2023-02-24T04:29:23.170Z,81.60
2023-02-24T04:31:58.591Z,94.30
2023-02-24T04:34:32.230Z,76.90
2023-02-24T04:37:02.258Z,85.03
2023-02-24T04:39:32.318Z,93.47
2023-02-24T04:42:01.630Z,77.23
2023-02-24T04:44:29.680Z,77.23
2023-02-24T04:46:58.134Z,72.53
2023-02-24T04:49:26.928Z,80.97
2023-02-24T04:51:57.130Z,93.63
2023-02-24T04:54:25.044Z,87.17
2023-02-24T04:56:54.297Z,98.87
2023-02-24T04:59:23.440Z,89.63
2023-02-24T05:01:53.058Z,81.93
2023-02-24T05:04:21.402Z,92.17
2023-02-24T05:06:49.350Z,110.43
2023-02-24T05:09:18.590Z,114.07
2023-02-24T05:11:49.073Z,84.30
2023-02-24T05:14:20.772Z,106.87
2023-02-24T05:16:50.083Z,94.00
2023-02-24T05:19:37.128Z,106.90
2023-02-24T05:22:07.073Z,102.30
2023-02-24T05:24:35.756Z,91.80
2023-02-24T05:27:04.211Z,103.00
2023-02-24T05:29:36.357Z,87.13
2023-02-24T05:32:05.751Z,96.33
2023-02-24T05:34:34.870Z,77.13
2023-02-24T05:37:10.204Z,89.77
2023-02-24T05:39:38.587Z,83.50
2023-02-24T05:42:07.138Z,90.53
2023-02-24T05:44:36.874Z,78.10
2023-02-24T05:47:05.988Z,105.73
2023-02-24T05:49:35.878Z,87.13
2023-02-24T05:52:07.891Z,91.30
2023-02-24T05:54:38.341Z,89.30
2023-02-24T05:57:08.979Z,83.93
2023-02-24T05:59:38.941Z,92.97
2023-02-24T06:02:09.485Z,102.07
2023-02-24T06:04:46.377Z,85.77
2023-02-24T06:07:18.923Z,92.83
2023-02-24T06:09:50.175Z,91.20
2023-02-24T06:12:19.579Z,89.73
2023-02-24T06:14:49.152Z,82.80
2023-02-24T06:17:18.591Z,95.93
2023-02-24T06:19:47.987Z,85.53
2023-02-24T06:22:19.104Z,87.87
2023-02-24T06:24:49.368Z,89.60
2023-02-24T06:27:19.586Z,77.13
2023-02-24T06:29:50.750Z,80.17
2023-02-24T06:32:19.165Z,111.03
2023-02-24T06:34:47.346Z,124.20
2023-02-24T06:37:18.200Z,87.40
2023-02-24T06:39:46.295Z,83.97
2023-02-24T06:42:14.900Z,107.30
2023-02-24T06:44:43.033Z,103.13
2023-02-24T06:47:16.242Z,92.00
2023-02-24T06:49:44.255Z,88.47
2023-02-24T06:52:18.220Z,95.50
2023-02-24T06:54:47.953Z,103.60
2023-02-24T06:57:15.925Z,86.93
2023-02-24T06:59:43.862Z,83.27
2023-02-24T07:02:13.160Z,92.03
2023-02-24T07:04:44.528Z,80.47
2023-02-24T07:07:14.169Z,100.67
2023-02-24T07:09:45.354Z,66.17
2023-02-24T07:12:13.622Z,97.43
2023-02-24T07:14:42.428Z,69.03
2023-02-24T07:17:10.596Z,83.43
2023-02-24T07:19:41.463Z,87.47
2023-02-24T07:22:10.941Z,83.83
2023-02-24T07:24:46.045Z,80.07
2023-02-24T07:27:21.894Z,77.03
2023-02-24T07:29:52.970Z,68.73
2023-02-24T07:32:23.393Z,81.20
2023-02-24T07:34:53.204Z,76.63
2023-02-24T07:37:23.138Z,67.90
2023-02-24T07:39:51.694Z,79.13
2023-02-24T07:42:19.667Z,93.77
2023-02-24T07:44:49.220Z,100.57
2023-02-24T07:47:17.258Z,78.73
2023-02-24T07:49:45.827Z,84.37
2023-02-24T07:52:16.278Z,78.90
2023-02-24T07:54:44.491Z,92.27
2023-02-24T07:57:13.939Z,85.90
2023-02-24T07:59:46.829Z,82.90
2023-02-24T08:02:15.267Z,91.70
2023-02-24T08:04:49.810Z,66.20
2023-02-24T08:07:24.590Z,65.97
2023-02-24T08:10:14.140Z,72.73
2023-02-24T08:12:47.614Z,61.90
2023-02-24T08:15:23.556Z,68.47
2023-02-24T08:17:53.259Z,77.43
2023-02-24T08:20:25.939Z,77.60
2023-02-24T08:22:56.300Z,77.90
2023-02-24T08:25:35.590Z,74.37
2023-02-24T08:28:08.915Z,69.23
2023-02-24T08:30:39.841Z,82.13
2023-02-24T08:33:10.166Z,68.33
2023-02-24T08:35:44.384Z,71.80
2023-02-24T08:38:16.878Z,73.80
2023-02-24T08:40:54.850Z,74.33
2023-02-24T08:43:33.184Z,77.87
2023-02-24T08:46:06.501Z,70.10
2023-02-24T08:48:42.234Z,67.47
2023-02-24T08:51:15.102Z,64.03
2023-02-24T08:53:46.733Z,67.27
2023-02-24T08:56:23.970Z,79.73
2023-02-24T08:58:56.974Z,76.50
2023-02-24T09:01:28.064Z,82.87
2023-02-24T09:03:58.154Z,66.83
2023-02-24T09:06:35.610Z,67.73
2023-02-24T09:09:22.572Z,58.27
2023-02-24T09:11:56.128Z,67.53
2023-02-24T09:14:28.685Z,72.37
2023-02-24T09:17:05.953Z,69.77
2023-02-24T09:20:01.878Z,71.63
2023-02-24T09:22:32.338Z,59.53
2023-02-24T09:25:19.257Z,57.17
2023-02-24T09:27:52.550Z,59.07
2023-02-24T09:30:42.411Z,61.80
2023-02-24T09:33:18.953Z,55.17
2023-02-24T09:35:49.063Z,58.87
2023-02-24T09:38:19.126Z,51.87
2023-02-24T09:40:50.334Z,44.30
2023-02-24T09:43:21.710Z,52.67
2023-02-24T09:45:58.366Z,53.23
2023-02-24T09:48:43.564Z,47.53
2023-02-24T09:51:21.660Z,41.00
2023-02-24T09:53:56.624Z,45.33
2023-02-24T09:56:36.916Z,45.50
2023-02-24T09:59:14.030Z,52.00
2023-02-24T10:01:48.351Z,48.93
2023-02-24T10:04:28.771Z,43.73
2023-02-24T10:07:03.061Z,40.40
2023-02-24T10:09:35.408Z,38.50
2023-02-24T10:12:19.532Z,41.20
2023-02-24T10:14:52.938Z,41.13
2023-02-24T10:17:30.530Z,38.90
2023-02-24T10:20:02.364Z,37.97
2023-02-24T10:22:50.330Z,33.53
2023-02-24T10:25:36.032Z,38.57
2023-02-24T10:28:17.914Z,35.43
2023-02-24T10:31:01.560Z,33.20
2023-02-24T10:33:38.708Z,20.73
2023-02-24T10:36:09.154Z,17.10
2023-02-24T10:38:38.219Z,15.30
2023-02-24T10:41:07.139Z,18.83
2023-02-24T10:43:45.469Z,18.40
2023-02-24T10:46:39.929Z,19.57
2023-02-24T10:49:16.251Z,18.57
2023-02-24T10:51:50.009Z,14.90
2023-02-24T10:54:44.822Z,23.70
2023-02-24T10:57:23.120Z,27.07
2023-02-24T11:00:27.480Z,19.70
2023-02-24T11:03:07.136Z,16.37
2023-02-24T11:05:44.344Z,18.53
2023-02-24T11:08:36.328Z,18.77
2023-02-24T11:11:20.219Z,22.50
2023-02-24T11:14:10.312Z,22.53
2023-02-24T11:17:08.706Z,15.87
2023-02-24T11:19:43.978Z,19.50
2023-02-24T11:22:16.076Z,14.77
2023-02-24T11:24:46.261Z,22.27
2023-02-24T11:27:17.341Z,19.30
2023-02-24T11:30:06.162Z,20.23
2023-02-24T11:33:02.754Z,20.50
2023-02-24T11:35:38.061Z,26.33
2023-02-24T11:38:18.171Z,25.47
2023-02-24T11:40:53.304Z,15.23
2023-02-24T11:43:28.401Z,16.60
2023-02-24T11:46:03.290Z,20.47
2023-02-24T11:48:38.390Z,15.00
2023-02-24T11:51:10.163Z,19.00
2023-02-24T11:53:44.602Z,14.27
2023-02-24T11:56:16.629Z,15.10
2023-02-24T11:58:49.452Z,21.53
2023-02-24T12:01:24.417Z,16.47
2023-02-24T12:04:02.857Z,13.37
2023-02-24T12:06:37.514Z,15.70
2023-02-24T12:09:15.500Z,12.50
2023-02-24T12:11:53.180Z,15.53
2023-02-24T12:14:31.819Z,15.33
2023-02-24T12:17:17.972Z,19.70
2023-02-24T12:20:05.527Z,12.00
2023-02-24T12:22:44.642Z,10.87
2023-02-24T12:25:14.933Z,14.57
2023-02-24T12:27:58.660Z,13.90
2023-02-24T12:30:38.825Z,10.60
2023-02-24T12:33:19.312Z,24.10
2023-02-24T12:36:02.944Z,15.10
2023-02-24T12:38:51.246Z,13.40
2023-02-24T12:41:41.722Z,29.07
2023-02-24T12:44:22.390Z,12.93
2023-02-24T12:46:58.341Z,15.83
2023-02-24T12:49:50.117Z,20.77
2023-02-24T12:52:28.072Z,23.43
2023-02-24T12:55:02.779Z,14.30
2023-02-24T12:57:37.125Z,15.93
2023-02-24T13:00:12.693Z,23.40
2023-02-24T13:02:53.305Z,21.07
2023-02-24T13:05:29.407Z,17.63
2023-02-24T13:08:13.560Z,30.27
2023-02-24T13:10:47.433Z,25.40
2023-02-24T13:13:24.494Z,21.03
2023-02-24T13:15:54.056Z,22.13
2023-02-24T13:18:26.648Z,23.13
2023-02-24T13:21:05.684Z,23.23
2023-02-24T13:23:36.018Z,16.63
2023-02-24T13:26:04.886Z,22.77
2023-02-24T13:28:36.254Z,30.10
2023-02-24T13:31:06.675Z,21.17
2023-02-24T13:33:36.531Z,25.50
2023-02-24T13:36:15.002Z,22.20
2023-02-24T13:38:46.828Z,17.43
2023-02-24T13:41:40.617Z,20.20
2023-02-24T13:44:28.465Z,22.30
2023-02-24T13:47:23.786Z,21.30
2023-02-24T13:50:03.243Z,24.17
2023-02-24T13:52:43.658Z,20.17
2023-02-24T13:55:29.290Z,28.97
2023-02-24T13:58:18.264Z,25.13
2023-02-24T14:00:58.415Z,29.90
2023-02-24T14:03:29.799Z,25.43
2023-02-24T14:05:59.894Z,21.83
2023-02-24T14:08:36.537Z,21.50
2023-02-24T14:11:10.958Z,19.73
2023-02-24T14:13:39.866Z,31.63
2023-02-24T14:16:11.853Z,18.43
2023-02-24T14:18:41.030Z,21.23
2023-02-24T14:21:22.298Z,19.40
2023-02-24T14:23:57.145Z,23.17
2023-02-24T14:26:27.396Z,26.90
2023-02-24T14:29:00.398Z,25.23
2023-02-24T14:31:30.029Z,20.23
2023-02-24T14:34:01.218Z,25.70
2023-02-24T14:36:32.785Z,17.33
2023-02-24T14:39:04.784Z,23.47
2023-02-24T14:41:34.445Z,30.67
2023-02-24T14:44:12.035Z,29.17
2023-02-24T14:46:48.657Z,36.20
2023-02-24T14:49:21.270Z,33.90
2023-02-24T14:51:54.879Z,26.63
2023-02-24T14:54:31.580Z,26.70
2023-02-24T14:57:01.841Z,32.77
2023-02-24T14:59:35.074Z,26.83
2023-02-24T15:02:04.142Z,32.00
2023-02-24T15:04:36.721Z,27.07
2023-02-24T15:07:07.236Z,22.50
2023-02-24T15:09:38.207Z,23.03
2023-02-24T15:12:22.521Z,19.20
2023-02-24T15:14:53.675Z,26.97
2023-02-24T15:17:23.134Z,25.37
2023-02-24T15:19:55.545Z,29.73
2023-02-24T15:22:26.757Z,26.97
2023-02-24T15:24:56.797Z,26.47
2023-02-24T15:27:28.772Z,21.37
2023-02-24T15:30:02.313Z,30.13
2023-02-24T15:32:33.613Z,24.93
2023-02-24T15:35:02.049Z,24.23
2023-02-24T15:37:34.674Z,31.57
2023-02-24T15:40:18.691Z,18.40
2023-02-24T15:42:53.756Z,22.13
2023-02-24T15:45:28.268Z,31.93
2023-02-24T15:47:58.044Z,26.33
2023-02-24T15:50:26.767Z,18.10
2023-02-24T15:52:57.046Z,24.97
2023-02-24T15:55:26.828Z,43.13
2023-02-24T15:58:01.724Z,35.37
2023-02-24T16:00:31.013Z,22.93
2023-02-24T16:02:59.317Z,37.63
2023-02-24T16:05:27.673Z,36.20
2023-02-24T16:07:55.824Z,23.03
2023-02-24T16:10:26.405Z,27.47
2023-02-24T16:12:56.422Z,23.13
2023-02-24T16:15:28.995Z,26.37
2023-02-24T16:17:58.199Z,25.40
2023-02-24T16:20:28.556Z,25.73
2023-02-24T16:22:57.326Z,32.00
2023-02-24T16:25:26.479Z,19.00
2023-02-24T16:27:57.235Z,38.30
2023-02-24T16:30:30.515Z,31.77
2023-02-24T16:32:59.455Z,26.50
2023-02-24T16:35:28.526Z,32.67
2023-02-24T16:37:56.513Z,24.23
2023-02-24T16:40:27.886Z,21.03
2023-02-24T16:42:56.363Z,29.33
2023-02-24T16:45:29.395Z,34.20
2023-02-24T16:48:02.190Z,29.97
2023-02-24T16:50:34.110Z,31.70
2023-02-24T16:53:02.464Z,36.60
2023-02-24T16:55:30.406Z,25.10
2023-02-24T16:57:58.448Z,38.47
2023-02-24T17:00:28.373Z,25.97
2023-02-24T17:02:56.482Z,31.53
2023-02-24T17:05:27.221Z,45.03
2023-02-24T17:07:57.362Z,22.30
2023-02-24T17:10:26.438Z,36.97
2023-02-24T17:12:54.353Z,25.73
2023-02-24T17:15:25.626Z,24.60
2023-02-24T17:17:54.885Z,33.10
2023-02-24T17:20:23.376Z,20.30
2023-02-24T17:22:51.354Z,25.80
2023-02-24T17:25:21.160Z,39.30
2023-02-24T17:27:49.236Z,37.43
2023-02-24T17:30:19.241Z,28.20
2023-02-24T17:32:47.321Z,24.30
2023-02-24T17:35:17.000Z,29.93
2023-02-24T17:37:45.184Z,19.87
2023-02-24T17:40:14.425Z,31.10
2023-02-24T17:42:42.774Z,24.23
2023-02-24T17:45:12.283Z,22.63
2023-02-24T17:47:40.935Z,23.03
2023-02-24T17:50:10.587Z,20.60
2023-02-24T17:52:41.232Z,35.00
2023-02-24T17:55:10.350Z,21.80
2023-02-24T17:57:39.723Z,18.60
2023-02-24T18:00:09.436Z,20.73
2023-02-24T18:02:38.517Z,24.83
2023-02-24T18:05:07.055Z,30.37
2023-02-24T18:07:35.127Z,23.80
2023-02-24T18:10:05.168Z,18.07
2023-02-24T18:12:33.199Z,30.33
2023-02-24T18:15:08.691Z,16.37
2023-02-24T18:17:38.370Z,23.23
2023-02-24T18:20:08.348Z,20.03
2023-02-24T18:22:36.870Z,24.67
2023-02-24T18:25:07.382Z,30.13
2023-02-24T18:27:35.384Z,21.90
2023-02-24T18:30:03.660Z,13.97
2023-02-24T18:32:31.845Z,21.73
2023-02-24T18:35:00.115Z,14.00
2023-02-24T18:37:28.350Z,21.33
2023-02-24T18:39:56.438Z,19.13
2023-02-24T18:42:25.930Z,18.00
2023-02-24T18:44:53.855Z,15.90
2023-02-24T18:47:21.787Z,16.00
2023-02-24T18:49:49.869Z,19.17
2023-02-24T18:52:17.803Z,17.63
2023-02-24T18:54:46.691Z,18.73
2023-02-24T18:57:14.613Z,24.13
2023-02-24T18:59:44.053Z,27.87
2023-02-24T19:02:12.135Z,20.77
2023-02-24T19:04:40.375Z,25.00
2023-02-24T19:07:08.428Z,25.03
2023-02-24T19:09:36.486Z,28.63
2023-02-24T19:12:04.527Z,29.03
2023-02-24T19:14:32.488Z,26.47
2023-02-24T19:17:02.953Z,23.23
2023-02-24T19:19:31.103Z,18.87
2023-02-24T19:21:59.090Z,17.50
2023-02-24T19:24:27.301Z,22.97
2023-02-24T19:26:55.481Z,21.10
2023-02-24T19:29:23.568Z,20.07
2023-02-24T19:31:54.046Z,22.13
2023-02-24T19:34:23.570Z,19.20
2023-02-24T19:36:51.484Z,26.47
2023-02-24T19:39:19.486Z,18.33
2023-02-24T19:41:49.525Z,28.27
2023-02-24T19:44:17.835Z,28.83
2023-02-24T19:46:45.975Z,18.17
2023-02-24T19:49:13.902Z,26.83
2023-02-24T19:51:46.023Z,20.93
2023-02-24T19:54:16.005Z,18.93
2023-02-24T19:56:44.001Z,21.97
2023-02-24T19:59:12.284Z,19.57
2023-02-24T20:01:40.522Z,23.73
2023-02-24T20:04:09.211Z,19.20
2023-02-24T20:06:39.123Z,21.37
2023-02-24T20:09:11.415Z,21.10
2023-02-24T20:11:40.331Z,20.10
2023-02-24T20:14:09.716Z,17.43
2023-02-24T20:16:38.309Z,23.93
2023-02-24T20:19:09.081Z,25.40
2023-02-24T20:21:38.474Z,24.43
2023-02-24T20:24:10.129Z,22.93
2023-02-24T20:26:41.236Z,28.17
2023-02-24T20:29:11.180Z,19.93
2023-02-24T20:31:39.489Z,18.37
2023-02-24T20:34:09.196Z,21.23
2023-02-24T20:36:37.823Z,21.73
2023-02-24T20:39:07.488Z,20.80
2023-02-24T20:41:36.770Z,15.43
2023-02-24T20:44:05.135Z,16.23
2023-02-24T20:46:34.082Z,20.07
2023-02-24T20:49:03.961Z,12.57
2023-02-24T20:51:33.252Z,13.77
2023-02-24T20:54:01.829Z,12.60
2023-02-24T20:56:34.043Z,9.70
2023-02-24T20:59:05.520Z,13.60
2023-02-24T21:01:34.711Z,18.60
2023-02-24T21:04:03.373Z,13.57
2023-02-24T21:06:31.605Z,12.10
2023-02-24T21:08:59.956Z,15.60
2023-02-24T21:11:29.715Z,12.00
2023-02-24T21:13:57.738Z,17.17
2023-02-24T21:16:27.942Z,16.50
2023-02-24T21:18:58.589Z,19.33
2023-02-24T21:21:26.732Z,14.00
2023-02-24T21:23:55.134Z,18.77
2023-02-24T21:26:27.000Z,18.03
2023-02-24T21:28:57.944Z,13.70
2023-02-24T21:31:28.408Z,12.40
2023-02-24T21:33:57.019Z,17.83
2023-02-24T21:36:26.292Z,17.40
2023-02-24T21:38:54.924Z,18.47
2023-02-24T21:41:23.812Z,15.47
2023-02-24T21:43:54.662Z,15.07
2023-02-24T21:46:24.623Z,25.90
2023-02-24T21:48:56.161Z,16.23
2023-02-24T21:51:24.830Z,27.63
2023-02-24T21:53:54.855Z,24.23
2023-02-24T21:56:25.653Z,18.93
2023-02-24T21:58:57.522Z,21.40
2023-02-24T22:01:27.854Z,20.10
2023-02-24T22:03:58.309Z,20.60
2023-02-24T22:06:30.283Z,25.10
2023-02-24T22:08:59.821Z,21.53
2023-02-24T22:11:27.922Z,20.10
2023-02-24T22:13:55.820Z,21.70
2023-02-24T22:16:26.338Z,31.50
2023-02-24T22:18:55.549Z,26.70
2023-02-24T22:21:27.679Z,19.40
2023-02-24T22:23:58.349Z,17.13
2023-02-24T22:26:26.823Z,20.43
2023-02-24T22:28:55.923Z,20.83
2023-02-24T22:31:25.654Z,21.37
2023-02-24T22:33:53.924Z,17.97
2023-02-24T22:36:25.993Z,15.57
2023-02-24T22:38:54.243Z,15.57
2023-02-24T22:41:24.761Z,17.77
2023-02-24T22:43:53.916Z,18.57
2023-02-24T22:46:24.019Z,16.20
2023-02-24T22:48:52.195Z,15.03
2023-02-24T22:51:20.732Z,21.10
2023-02-24T22:53:51.021Z,15.00
2023-02-24T22:56:21.912Z,14.97
2023-02-24T22:58:50.206Z,12.87
2023-02-24T23:01:21.828Z,11.77
2023-02-24T23:03:50.141Z,15.77
2023-02-24T23:06:20.298Z,14.80
2023-02-24T23:08:51.524Z,14.60
2023-02-24T23:11:21.570Z,13.43
2023-02-24T23:13:51.080Z,19.17
2023-02-24T23:16:21.901Z,17.17
2023-02-24T23:18:53.671Z,16.63
2023-02-24T23:21:24.866Z,17.57
2023-02-24T23:23:57.012Z,12.20
2023-02-24T23:26:30.065Z,14.50
2023-02-24T23:28:58.061Z,17.10
2023-02-24T23:31:26.392Z,14.40
2023-02-24T23:33:55.746Z,22.57
2023-02-24T23:36:25.214Z,14.17
2023-02-24T23:38:57.199Z,20.50
2023-02-24T23:41:25.434Z,14.30
2023-02-24T23:43:53.368Z,15.93
2023-02-24T23:46:21.676Z,16.00
2023-02-24T23:48:52.424Z,19.70
2023-02-24T23:51:21.133Z,21.03
2023-02-24T23:53:49.348Z,19.63
2023-02-24T23:56:20.333Z,19.93
2023-02-24T23:58:51.633Z,25.27
